sensor_id;sensor_type;location;lat;lon;timestamp;P1;durP1;ratioP1;P2;durP2;ratioP2
20042;SDS011;10182;52.896;6.496;2022-10-31T00:01:20;28.43;;;17.23;;
20042;SDS011;10182;52.896;6.496;2022-10-31T00:06:24;32.63;;;18.40;;
20042;SDS011;10182;52.896;6.496;2022-10-31T00:11:27;29.27;;;18.90;;
20042;SDS011;10182;52.896;6.496;2022-10-31T00:16:29;31.43;;;20.47;;
20042;SDS011;10182;52.896;6.496;2022-10-31T00:21:31;30.43;;;20.30;;
20042;SDS011;10182;52.896;6.496;2022-10-31T00:26:35;33.47;;;21.57;;
20042;SDS011;10182;52.896;6.496;2022-10-31T00:31:36;29.13;;;21.03;;
20042;SDS011;10182;52.896;6.496;2022-10-31T00:36:38;31.10;;;21.00;;
20042;SDS011;10182;52.896;6.496;2022-10-31T00:41:41;26.77;;;20.37;;
20042;SDS011;10182;52.896;6.496;2022-10-31T00:46:43;30.60;;;20.83;;
20042;SDS011;10182;52.896;6.496;2022-10-31T00:51:46;31.77;;;20.93;;
20042;SDS011;10182;52.896;6.496;2022-10-31T00:56:49;25.53;;;19.37;;
20042;SDS011;10182;52.896;6.496;2022-10-31T01:01:51;27.47;;;20.17;;
20042;SDS011;10182;52.896;6.496;2022-10-31T01:06:52;27.63;;;21.03;;
20042;SDS011;10182;52.896;6.496;2022-10-31T01:11:55;28.77;;;19.70;;
20042;SDS011;10182;52.896;6.496;2022-10-31T01:16:57;29.30;;;19.80;;
20042;SDS011;10182;52.896;6.496;2022-10-31T01:21:59;28.90;;;19.63;;
20042;SDS011;10182;52.896;6.496;2022-10-31T01:27:02;26.87;;;21.17;;
20042;SDS011;10182;52.896;6.496;2022-10-31T01:32:04;24.13;;;19.83;;
20042;SDS011;10182;52.896;6.496;2022-10-31T01:37:06;28.67;;;20.73;;
20042;SDS011;10182;52.896;6.496;2022-10-31T01:42:10;29.67;;;20.33;;
20042;SDS011;10182;52.896;6.496;2022-10-31T01:47:19;29.47;;;21.13;;
20042;SDS011;10182;52.896;6.496;2022-10-31T01:52:26;32.33;;;20.13;;
20042;SDS011;10182;52.896;6.496;2022-10-31T01:57:33;27.83;;;19.77;;
20042;SDS011;10182;52.896;6.496;2022-10-31T02:02:37;27.77;;;19.70;;
20042;SDS011;10182;52.896;6.496;2022-10-31T02:07:39;25.00;;;18.57;;
20042;SDS011;10182;52.896;6.496;2022-10-31T02:12:48;26.27;;;19.10;;
20042;SDS011;10182;52.896;6.496;2022-10-31T02:17:52;26.37;;;20.53;;
20042;SDS011;10182;52.896;6.496;2022-10-31T02:23:04;27.80;;;20.57;;
20042;SDS011;10182;52.896;6.496;2022-10-31T02:34:06;24.60;;;19.40;;
20042;SDS011;10182;52.896;6.496;2022-10-31T02:39:16;25.80;;;19.23;;
20042;SDS011;10182;52.896;6.496;2022-10-31T02:44:26;27.97;;;20.83;;
20042;SDS011;10182;52.896;6.496;2022-10-31T02:49:38;23.77;;;20.50;;
20042;SDS011;10182;52.896;6.496;2022-10-31T02:54:47;31.43;;;21.40;;
20042;SDS011;10182;52.896;6.496;2022-10-31T02:59:51;27.17;;;19.70;;
20042;SDS011;10182;52.896;6.496;2022-10-31T03:04:59;22.50;;;18.63;;
20042;SDS011;10182;52.896;6.496;2022-10-31T03:10:14;22.77;;;18.67;;
20042;SDS011;10182;52.896;6.496;2022-10-31T03:15:22;25.73;;;20.23;;
20042;SDS011;10182;52.896;6.496;2022-10-31T03:20:33;25.70;;;19.70;;
20042;SDS011;10182;52.896;6.496;2022-10-31T03:25:38;23.57;;;18.67;;
20042;SDS011;10182;52.896;6.496;2022-10-31T03:30:42;25.80;;;19.50;;
20042;SDS011;10182;52.896;6.496;2022-10-31T03:35:48;27.87;;;19.87;;
20042;SDS011;10182;52.896;6.496;2022-10-31T03:40:53;23.10;;;18.33;;
20042;SDS011;10182;52.896;6.496;2022-10-31T03:45:59;24.00;;;18.13;;
20042;SDS011;10182;52.896;6.496;2022-10-31T03:51:04;23.00;;;18.37;;
20042;SDS011;10182;52.896;6.496;2022-10-31T03:56:12;25.27;;;18.53;;
20042;SDS011;10182;52.896;6.496;2022-10-31T04:01:20;24.53;;;20.10;;
20042;SDS011;10182;52.896;6.496;2022-10-31T04:06:25;25.00;;;19.50;;
20042;SDS011;10182;52.896;6.496;2022-10-31T04:11:28;21.10;;;17.73;;
20042;SDS011;10182;52.896;6.496;2022-10-31T04:16:32;24.23;;;18.90;;
20042;SDS011;10182;52.896;6.496;2022-10-31T04:21:36;20.93;;;18.37;;
20042;SDS011;10182;52.896;6.496;2022-10-31T04:26:37;23.60;;;18.70;;
20042;SDS011;10182;52.896;6.496;2022-10-31T04:31:39;21.73;;;17.83;;
20042;SDS011;10182;52.896;6.496;2022-10-31T04:36:42;28.87;;;19.80;;
20042;SDS011;10182;52.896;6.496;2022-10-31T04:41:44;23.40;;;17.50;;
20042;SDS011;10182;52.896;6.496;2022-10-31T04:46:45;26.63;;;20.03;;
20042;SDS011;10182;52.896;6.496;2022-10-31T04:51:48;20.87;;;16.77;;
20042;SDS011;10182;52.896;6.496;2022-10-31T04:56:50;20.07;;;17.70;;
20042;SDS011;10182;52.896;6.496;2022-10-31T05:01:52;20.57;;;17.50;;
20042;SDS011;10182;52.896;6.496;2022-10-31T05:06:55;23.37;;;17.13;;
20042;SDS011;10182;52.896;6.496;2022-10-31T05:11:56;23.80;;;18.23;;
20042;SDS011;10182;52.896;6.496;2022-10-31T05:16:58;20.30;;;17.37;;
20042;SDS011;10182;52.896;6.496;2022-10-31T05:22:01;21.37;;;17.87;;
20042;SDS011;10182;52.896;6.496;2022-10-31T05:27:03;21.43;;;18.27;;
20042;SDS011;10182;52.896;6.496;2022-10-31T05:32:05;22.03;;;17.87;;
20042;SDS011;10182;52.896;6.496;2022-10-31T05:37:08;23.97;;;18.20;;
20042;SDS011;10182;52.896;6.496;2022-10-31T05:42:09;24.90;;;20.03;;
20042;SDS011;10182;52.896;6.496;2022-10-31T05:47:11;26.17;;;20.23;;
20042;SDS011;10182;52.896;6.496;2022-10-31T05:52:14;21.63;;;19.20;;
20042;SDS011;10182;52.896;6.496;2022-10-31T05:57:16;23.63;;;18.30;;
20042;SDS011;10182;52.896;6.496;2022-10-31T06:02:18;20.37;;;18.20;;
20042;SDS011;10182;52.896;6.496;2022-10-31T06:07:21;22.87;;;19.27;;
20042;SDS011;10182;52.896;6.496;2022-10-31T06:12:23;27.00;;;20.67;;
20042;SDS011;10182;52.896;6.496;2022-10-31T06:17:24;28.13;;;20.47;;
20042;SDS011;10182;52.896;6.496;2022-10-31T06:22:27;21.90;;;18.20;;
20042;SDS011;10182;52.896;6.496;2022-10-31T06:27:29;25.27;;;20.07;;
20042;SDS011;10182;52.896;6.496;2022-10-31T06:32:31;26.40;;;20.13;;
20042;SDS011;10182;52.896;6.496;2022-10-31T06:37:34;23.60;;;19.73;;
20042;SDS011;10182;52.896;6.496;2022-10-31T06:42:35;22.77;;;19.53;;
20042;SDS011;10182;52.896;6.496;2022-10-31T06:47:37;14.43;;;13.03;;
20042;SDS011;10182;52.896;6.496;2022-10-31T06:52:40;15.33;;;12.80;;
20042;SDS011;10182;52.896;6.496;2022-10-31T06:57:42;12.03;;;10.73;;
20042;SDS011;10182;52.896;6.496;2022-10-31T07:02:54;15.00;;;12.73;;
20042;SDS011;10182;52.896;6.496;2022-10-31T07:07:58;14.40;;;12.53;;
20042;SDS011;10182;52.896;6.496;2022-10-31T07:13:01;14.70;;;13.30;;
20042;SDS011;10182;52.896;6.496;2022-10-31T07:18:05;14.70;;;13.30;;
20042;SDS011;10182;52.896;6.496;2022-10-31T07:23:11;11.70;;;10.50;;
20042;SDS011;10182;52.896;6.496;2022-10-31T07:28:13;12.43;;;11.33;;
20042;SDS011;10182;52.896;6.496;2022-10-31T07:33:15;14.23;;;11.20;;
20042;SDS011;10182;52.896;6.496;2022-10-31T07:38:18;13.23;;;12.10;;
20042;SDS011;10182;52.896;6.496;2022-10-31T07:43:19;14.60;;;13.10;;
20042;SDS011;10182;52.896;6.496;2022-10-31T07:48:22;15.23;;;13.77;;
20042;SDS011;10182;52.896;6.496;2022-10-31T07:53:25;17.37;;;14.87;;
20042;SDS011;10182;52.896;6.496;2022-10-31T07:58:27;16.13;;;14.63;;
20042;SDS011;10182;52.896;6.496;2022-10-31T08:03:29;17.30;;;15.50;;
20042;SDS011;10182;52.896;6.496;2022-10-31T08:08:32;16.43;;;14.93;;
20042;SDS011;10182;52.896;6.496;2022-10-31T08:13:33;18.77;;;16.77;;
20042;SDS011;10182;52.896;6.496;2022-10-31T08:18:35;19.67;;;17.67;;
20042;SDS011;10182;52.896;6.496;2022-10-31T08:23:39;19.37;;;17.27;;
20042;SDS011;10182;52.896;6.496;2022-10-31T08:28:41;21.33;;;19.03;;
20042;SDS011;10182;52.896;6.496;2022-10-31T08:33:42;21.60;;;19.40;;
20042;SDS011;10182;52.896;6.496;2022-10-31T08:38:45;20.63;;;18.33;;
20042;SDS011;10182;52.896;6.496;2022-10-31T08:43:47;23.43;;;19.27;;
20042;SDS011;10182;52.896;6.496;2022-10-31T08:48:49;23.87;;;21.17;;
20042;SDS011;10182;52.896;6.496;2022-10-31T08:53:52;23.73;;;20.93;;
20042;SDS011;10182;52.896;6.496;2022-10-31T08:58:55;23.00;;;20.60;;
20042;SDS011;10182;52.896;6.496;2022-10-31T09:03:57;25.90;;;21.30;;
20042;SDS011;10182;52.896;6.496;2022-10-31T09:09:00;23.60;;;21.07;;
20042;SDS011;10182;52.896;6.496;2022-10-31T09:14:02;22.57;;;20.17;;
20042;SDS011;10182;52.896;6.496;2022-10-31T09:19:03;24.00;;;21.27;;
20042;SDS011;10182;52.896;6.496;2022-10-31T09:24:07;26.37;;;21.87;;
20042;SDS011;10182;52.896;6.496;2022-10-31T09:29:09;26.37;;;23.53;;
20042;SDS011;10182;52.896;6.496;2022-10-31T09:34:10;27.97;;;24.37;;
20042;SDS011;10182;52.896;6.496;2022-10-31T09:39:13;26.40;;;23.60;;
20042;SDS011;10182;52.896;6.496;2022-10-31T09:44:18;25.67;;;22.60;;
20042;SDS011;10182;52.896;6.496;2022-10-31T09:49:37;33.10;;;27.03;;
20042;SDS011;10182;52.896;6.496;2022-10-31T09:54:54;30.50;;;27.20;;
20042;SDS011;10182;52.896;6.496;2022-10-31T10:00:00;28.53;;;25.43;;
20042;SDS011;10182;52.896;6.496;2022-10-31T10:05:05;28.60;;;23.37;;
20042;SDS011;10182;52.896;6.496;2022-10-31T10:10:15;29.27;;;24.23;;
20042;SDS011;10182;52.896;6.496;2022-10-31T10:15:33;30.63;;;25.43;;
20042;SDS011;10182;52.896;6.496;2022-10-31T10:20:43;30.50;;;24.90;;
20042;SDS011;10182;52.896;6.496;2022-10-31T10:26:01;31.00;;;26.13;;
20042;SDS011;10182;52.896;6.496;2022-10-31T10:31:12;29.03;;;24.67;;
20042;SDS011;10182;52.896;6.496;2022-10-31T10:36:18;26.23;;;22.60;;
20042;SDS011;10182;52.896;6.496;2022-10-31T10:41:24;29.40;;;23.40;;
20042;SDS011;10182;52.896;6.496;2022-10-31T10:46:33;26.50;;;23.00;;
20042;SDS011;10182;52.896;6.496;2022-10-31T10:51:59;24.93;;;20.87;;
20042;SDS011;10182;52.896;6.496;2022-10-31T10:57:14;24.73;;;20.30;;
20042;SDS011;10182;52.896;6.496;2022-10-31T11:02:24;25.20;;;20.43;;
20042;SDS011;10182;52.896;6.496;2022-10-31T11:07:36;25.43;;;18.50;;
20042;SDS011;10182;52.896;6.496;2022-10-31T11:12:40;21.30;;;18.93;;
20042;SDS011;10182;52.896;6.496;2022-10-31T11:17:46;18.80;;;16.57;;
20042;SDS011;10182;52.896;6.496;2022-10-31T11:22:55;16.60;;;14.70;;
20042;SDS011;10182;52.896;6.496;2022-10-31T11:28:04;16.07;;;13.97;;
20042;SDS011;10182;52.896;6.496;2022-10-31T11:33:11;20.37;;;13.50;;
20042;SDS011;10182;52.896;6.496;2022-10-31T11:38:19;15.60;;;11.17;;
20042;SDS011;10182;52.896;6.496;2022-10-31T11:43:24;16.60;;;12.90;;
20042;SDS011;10182;52.896;6.496;2022-10-31T11:48:26;15.03;;;12.17;;
20042;SDS011;10182;52.896;6.496;2022-10-31T11:53:28;21.20;;;13.20;;
20042;SDS011;10182;52.896;6.496;2022-10-31T11:58:33;15.90;;;12.67;;
20042;SDS011;10182;52.896;6.496;2022-10-31T12:03:38;13.37;;;10.67;;
20042;SDS011;10182;52.896;6.496;2022-10-31T12:08:51;15.87;;;11.47;;
20042;SDS011;10182;52.896;6.496;2022-10-31T12:13:59;13.60;;;10.30;;
20042;SDS011;10182;52.896;6.496;2022-10-31T12:19:11;12.37;;;9.57;;
20042;SDS011;10182;52.896;6.496;2022-10-31T12:24:28;14.57;;;10.50;;
20042;SDS011;10182;52.896;6.496;2022-10-31T12:29:49;14.57;;;9.80;;
20042;SDS011;10182;52.896;6.496;2022-10-31T12:35:08;14.03;;;9.73;;
20042;SDS011;10182;52.896;6.496;2022-10-31T12:40:26;14.90;;;9.80;;
20042;SDS011;10182;52.896;6.496;2022-10-31T12:45:48;13.53;;;10.57;;
20042;SDS011;10182;52.896;6.496;2022-10-31T12:50:55;19.53;;;10.00;;
20042;SDS011;10182;52.896;6.496;2022-10-31T12:56:07;13.70;;;8.30;;
20042;SDS011;10182;52.896;6.496;2022-10-31T13:01:22;14.20;;;8.90;;
20042;SDS011;10182;52.896;6.496;2022-10-31T13:06:29;16.00;;;8.70;;
20042;SDS011;10182;52.896;6.496;2022-10-31T13:11:35;12.17;;;9.33;;
20042;SDS011;10182;52.896;6.496;2022-10-31T13:16:43;11.73;;;8.70;;
20042;SDS011;10182;52.896;6.496;2022-10-31T13:21:51;14.63;;;8.67;;
20042;SDS011;10182;52.896;6.496;2022-10-31T13:26:59;13.97;;;7.97;;
20042;SDS011;10182;52.896;6.496;2022-10-31T13:32:06;11.90;;;7.97;;
20042;SDS011;10182;52.896;6.496;2022-10-31T13:37:12;14.67;;;8.20;;
20042;SDS011;10182;52.896;6.496;2022-10-31T13:42:19;12.67;;;7.10;;
20042;SDS011;10182;52.896;6.496;2022-10-31T13:47:27;12.93;;;6.90;;
20042;SDS011;10182;52.896;6.496;2022-10-31T13:52:29;13.20;;;7.17;;
20042;SDS011;10182;52.896;6.496;2022-10-31T13:57:33;10.97;;;6.43;;
20042;SDS011;10182;52.896;6.496;2022-10-31T14:02:44;12.77;;;7.37;;
20042;SDS011;10182;52.896;6.496;2022-10-31T14:07:48;9.47;;;6.80;;
20042;SDS011;10182;52.896;6.496;2022-10-31T14:12:51;12.47;;;7.53;;
20042;SDS011;10182;52.896;6.496;2022-10-31T14:17:56;12.97;;;6.90;;
20042;SDS011;10182;52.896;6.496;2022-10-31T14:23:09;10.80;;;7.43;;
20042;SDS011;10182;52.896;6.496;2022-10-31T14:28:19;12.60;;;7.70;;
20042;SDS011;10182;52.896;6.496;2022-10-31T14:33:24;11.73;;;6.37;;
20042;SDS011;10182;52.896;6.496;2022-10-31T14:38:31;12.07;;;6.90;;
20042;SDS011;10182;52.896;6.496;2022-10-31T14:44:02;14.87;;;7.90;;
20042;SDS011;10182;52.896;6.496;2022-10-31T14:49:25;12.10;;;8.00;;
20042;SDS011;10182;52.896;6.496;2022-10-31T14:54:38;10.70;;;6.93;;
20042;SDS011;10182;52.896;6.496;2022-10-31T14:59:43;12.53;;;7.77;;
20042;SDS011;10182;52.896;6.496;2022-10-31T15:04:51;11.30;;;7.57;;
20042;SDS011;10182;52.896;6.496;2022-10-31T15:09:56;11.73;;;7.20;;
20042;SDS011;10182;52.896;6.496;2022-10-31T15:15:10;10.63;;;6.80;;
20042;SDS011;10182;52.896;6.496;2022-10-31T15:20:13;11.50;;;6.53;;
20042;SDS011;10182;52.896;6.496;2022-10-31T15:25:20;9.53;;;6.40;;
20042;SDS011;10182;52.896;6.496;2022-10-31T15:30:24;9.67;;;6.07;;
20042;SDS011;10182;52.896;6.496;2022-10-31T15:35:29;6.97;;;5.33;;
20042;SDS011;10182;52.896;6.496;2022-10-31T15:40:31;8.80;;;6.07;;
20042;SDS011;10182;52.896;6.496;2022-10-31T15:45:33;8.77;;;5.40;;
20042;SDS011;10182;52.896;6.496;2022-10-31T15:50:38;8.57;;;5.60;;
20042;SDS011;10182;52.896;6.496;2022-10-31T15:55:45;10.27;;;6.07;;
20042;SDS011;10182;52.896;6.496;2022-10-31T16:00:58;9.73;;;6.80;;
20042;SDS011;10182;52.896;6.496;2022-10-31T16:06:03;14.43;;;7.40;;
20042;SDS011;10182;52.896;6.496;2022-10-31T16:11:16;9.67;;;7.07;;
20042;SDS011;10182;52.896;6.496;2022-10-31T16:16:22;12.97;;;7.20;;
20042;SDS011;10182;52.896;6.496;2022-10-31T16:21:27;10.70;;;7.33;;
20042;SDS011;10182;52.896;6.496;2022-10-31T16:26:31;11.90;;;8.67;;
20042;SDS011;10182;52.896;6.496;2022-10-31T16:31:35;12.27;;;9.80;;
20042;SDS011;10182;52.896;6.496;2022-10-31T16:36:39;17.67;;;10.53;;
20042;SDS011;10182;52.896;6.496;2022-10-31T16:41:42;13.77;;;10.37;;
20042;SDS011;10182;52.896;6.496;2022-10-31T16:46:45;17.57;;;11.37;;
20042;SDS011;10182;52.896;6.496;2022-10-31T16:51:48;16.47;;;12.20;;
20042;SDS011;10182;52.896;6.496;2022-10-31T16:56:50;16.03;;;12.63;;
20042;SDS011;10182;52.896;6.496;2022-10-31T17:01:52;17.87;;;14.17;;
20042;SDS011;10182;52.896;6.496;2022-10-31T17:06:56;21.70;;;16.93;;
20042;SDS011;10182;52.896;6.496;2022-10-31T17:11:58;22.80;;;16.60;;
20042;SDS011;10182;52.896;6.496;2022-10-31T17:17:00;22.80;;;17.73;;
20042;SDS011;10182;52.896;6.496;2022-10-31T17:22:03;25.90;;;17.40;;
20042;SDS011;10182;52.896;6.496;2022-10-31T17:27:05;23.30;;;18.53;;
20042;SDS011;10182;52.896;6.496;2022-10-31T17:32:07;24.83;;;18.30;;
20042;SDS011;10182;52.896;6.496;2022-10-31T17:37:10;27.27;;;19.30;;
20042;SDS011;10182;52.896;6.496;2022-10-31T17:42:11;28.03;;;19.97;;
20042;SDS011;10182;52.896;6.496;2022-10-31T17:47:13;29.97;;;21.93;;
20042;SDS011;10182;52.896;6.496;2022-10-31T17:52:16;31.43;;;21.10;;
20042;SDS011;10182;52.896;6.496;2022-10-31T17:57:18;28.90;;;21.93;;
20042;SDS011;10182;52.896;6.496;2022-10-31T18:02:19;31.73;;;23.33;;
20042;SDS011;10182;52.896;6.496;2022-10-31T18:07:22;27.83;;;22.63;;
20042;SDS011;10182;52.896;6.496;2022-10-31T18:12:24;31.23;;;24.33;;
20042;SDS011;10182;52.896;6.496;2022-10-31T18:17:26;36.23;;;25.20;;
20042;SDS011;10182;52.896;6.496;2022-10-31T18:22:29;33.90;;;26.47;;
20042;SDS011;10182;52.896;6.496;2022-10-31T18:27:31;34.90;;;25.43;;
20042;SDS011;10182;52.896;6.496;2022-10-31T18:32:32;34.63;;;24.03;;
20042;SDS011;10182;52.896;6.496;2022-10-31T18:37:36;35.87;;;25.90;;
20042;SDS011;10182;52.896;6.496;2022-10-31T18:42:39;35.90;;;25.80;;
20042;SDS011;10182;52.896;6.496;2022-10-31T18:47:40;35.30;;;26.70;;
20042;SDS011;10182;52.896;6.496;2022-10-31T18:52:43;36.33;;;25.87;;
20042;SDS011;10182;52.896;6.496;2022-10-31T18:57:45;31.40;;;24.60;;
20042;SDS011;10182;52.896;6.496;2022-10-31T19:02:47;34.20;;;25.27;;
20042;SDS011;10182;52.896;6.496;2022-10-31T19:07:50;29.90;;;24.37;;
20042;SDS011;10182;52.896;6.496;2022-10-31T19:12:51;35.67;;;24.53;;
20042;SDS011;10182;52.896;6.496;2022-10-31T19:17:53;34.37;;;25.90;;
20042;SDS011;10182;52.896;6.496;2022-10-31T19:22:56;33.50;;;24.77;;
20042;SDS011;10182;52.896;6.496;2022-10-31T19:27:58;32.67;;;25.03;;
20042;SDS011;10182;52.896;6.496;2022-10-31T19:33:03;30.87;;;23.57;;
20042;SDS011;10182;52.896;6.496;2022-10-31T19:38:06;33.90;;;24.73;;
20042;SDS011;10182;52.896;6.496;2022-10-31T19:43:08;31.83;;;22.47;;
20042;SDS011;10182;52.896;6.496;2022-10-31T19:48:10;27.93;;;21.87;;
20042;SDS011;10182;52.896;6.496;2022-10-31T19:53:13;31.67;;;23.13;;
20042;SDS011;10182;52.896;6.496;2022-10-31T19:58:14;28.13;;;21.13;;
20042;SDS011;10182;52.896;6.496;2022-10-31T20:03:16;33.10;;;21.40;;
20042;SDS011;10182;52.896;6.496;2022-10-31T20:08:19;30.10;;;21.03;;
20042;SDS011;10182;52.896;6.496;2022-10-31T20:13:22;25.60;;;20.27;;
20042;SDS011;10182;52.896;6.496;2022-10-31T20:18:24;27.10;;;19.93;;
20042;SDS011;10182;52.896;6.496;2022-10-31T20:23:27;27.90;;;20.57;;
20042;SDS011;10182;52.896;6.496;2022-10-31T20:28:29;28.47;;;20.07;;
20042;SDS011;10182;52.896;6.496;2022-10-31T20:33:31;25.67;;;19.00;;
20042;SDS011;10182;52.896;6.496;2022-10-31T20:38:36;31.93;;;19.53;;
20042;SDS011;10182;52.896;6.496;2022-10-31T20:43:38;26.93;;;19.27;;
20042;SDS011;10182;52.896;6.496;2022-10-31T20:48:40;28.73;;;18.87;;
20042;SDS011;10182;52.896;6.496;2022-10-31T20:53:43;31.03;;;20.73;;
20042;SDS011;10182;52.896;6.496;2022-10-31T20:58:45;30.07;;;20.77;;
20042;SDS011;10182;52.896;6.496;2022-10-31T21:03:47;25.60;;;18.43;;
20042;SDS011;10182;52.896;6.496;2022-10-31T21:08:51;29.47;;;20.43;;
20042;SDS011;10182;52.896;6.496;2022-10-31T21:13:53;24.13;;;17.30;;
20042;SDS011;10182;52.896;6.496;2022-10-31T21:18:55;28.03;;;19.63;;
20042;SDS011;10182;52.896;6.496;2022-10-31T21:23:59;26.00;;;19.00;;
20042;SDS011;10182;52.896;6.496;2022-10-31T21:29:03;27.13;;;19.23;;
20042;SDS011;10182;52.896;6.496;2022-10-31T21:34:06;26.50;;;19.47;;
20042;SDS011;10182;52.896;6.496;2022-10-31T21:39:09;23.03;;;17.67;;
20042;SDS011;10182;52.896;6.496;2022-10-31T21:44:11;25.20;;;17.43;;
20042;SDS011;10182;52.896;6.496;2022-10-31T21:49:13;28.73;;;19.10;;
20042;SDS011;10182;52.896;6.496;2022-10-31T21:54:16;27.63;;;18.67;;
20042;SDS011;10182;52.896;6.496;2022-10-31T21:59:32;29.10;;;18.60;;
20042;SDS011;10182;52.896;6.496;2022-10-31T22:04:33;28.93;;;20.80;;
20042;SDS011;10182;52.896;6.496;2022-10-31T22:09:36;29.90;;;19.27;;
20042;SDS011;10182;52.896;6.496;2022-10-31T22:14:40;23.43;;;18.33;;
20042;SDS011;10182;52.896;6.496;2022-10-31T22:19:42;28.37;;;19.53;;
20042;SDS011;10182;52.896;6.496;2022-10-31T22:24:45;30.57;;;19.63;;
20042;SDS011;10182;52.896;6.496;2022-10-31T22:29:46;25.70;;;18.43;;
20042;SDS011;10182;52.896;6.496;2022-10-31T22:34:48;25.97;;;18.83;;
20042;SDS011;10182;52.896;6.496;2022-10-31T22:39:51;26.47;;;18.07;;
20042;SDS011;10182;52.896;6.496;2022-10-31T22:44:53;23.90;;;17.37;;
20042;SDS011;10182;52.896;6.496;2022-10-31T22:49:55;24.40;;;17.27;;
20042;SDS011;10182;52.896;6.496;2022-10-31T22:54:58;24.07;;;18.13;;
20042;SDS011;10182;52.896;6.496;2022-10-31T22:59:59;22.77;;;16.70;;
20042;SDS011;10182;52.896;6.496;2022-10-31T23:05:01;22.53;;;16.80;;
20042;SDS011;10182;52.896;6.496;2022-10-31T23:10:05;24.27;;;17.00;;
20042;SDS011;10182;52.896;6.496;2022-10-31T23:15:07;24.77;;;16.77;;
20042;SDS011;10182;52.896;6.496;2022-10-31T23:20:09;26.33;;;16.53;;
20042;SDS011;10182;52.896;6.496;2022-10-31T23:25:12;21.43;;;14.80;;
20042;SDS011;10182;52.896;6.496;2022-10-31T23:30:31;20.87;;;15.10;;
20042;SDS011;10182;52.896;6.496;2022-10-31T23:35:33;20.90;;;14.20;;
20042;SDS011;10182;52.896;6.496;2022-10-31T23:40:36;23.43;;;13.63;;
20042;SDS011;10182;52.896;6.496;2022-10-31T23:45:40;18.90;;;13.77;;
20042;SDS011;10182;52.896;6.496;2022-10-31T23:50:45;23.80;;;14.07;;
20042;SDS011;10182;52.896;6.496;2022-10-31T23:55:48;19.23;;;14.07;;
